Jacksonville, FL (32210)

1:21 PM EST on December 25, 2014 (GMT -0500)
Ortega Farms - Jeff's Backyard | Change Station
CLOSE
Current Station
Personal Weather Station
Location: Jacksonville, FL
Elevation: 23 ft
Nearby Weather Stations

Elev 23 ft 30.26 °N, 81.73 °W | Updated 6 minutes ago

Overcast
Overcast
58.5 °F
Feels Like 58.5 °F
N
2.2
Wind Variable Wind from NE

Today
High -- | Low -- °F
--% Chance of Precip.
Yesterday
High -- | Low -- °F
Precip. -- in
7:21 AM 5:33 PM
Waxing Crescent, 18% visible
Pressure 30.19 in
Visibility 10.0 miles
Clouds Overcast 11000 ft
Dew Point 51 °F
Humidity 77%
Rainfall 0.00 in
Snow Depth Not available.
UV 2 out of 12
Pollen .50 out of 12
Air Quality Not available.
Flu Activity Not available.
METAR KNIP 251753Z AUTO 28007KT 10SM OVC110 14/08 A3020 RMK AO2 SLP222 T01440078 10150 20139 58004

More Conditions Fewer Conditions

Pressure 30.19 in
Visibility 10.0 miles
Clouds Overcast 11000 ft
Dew Point 51 °F
Humidity 77%
Rainfall 0.00 in
Snow Depth Not available.
UV 2 out of 12
Pollen .50 out of 12
Air Quality Not available.
Flu Activity Not available.
METAR KNIP 251753Z AUTO 28007KT 10SM OVC110 14/08 A3020 RMK AO2 SLP222 T01440078 10150 20139 58004

More Conditions Fewer Conditions

10-Day Weather Forecast

Almanac

Astronomy

Dec. 25, 2014 Rise Set
Actual Time
Civil Twilight
Nautical Twilight
Astronomical Twilight
Moon
Length of Visible Light
Length of Day
Tomorrow will be .
, % of the Moon is Illuminated

Today's Extremes

State Highs State Lows

Community

WunderPhotos

Upload Photos

1,780,353 photos uploaded!

WunderBlogs® & News

Nearby

Air Quality

  Air Quality AQ Index Pollutant
Not available.

Snow Depth

Station Depth Elevation

Earthquake Activity

City Distance Mag. Time & Date
Minimum magnitude displayed is 2.5.

Coastal Water Temperatures

Place Temperature

Nearby Weather Stations